Time;durP1;ratioP1;P1;durP2;ratioP2;P2;SDS_P1;SDS_P2;PMS_P1;PMS_P2;Temp;Humidity;BMP_temperature;BMP_pressure;BME280_temperature;BME280_humidity;BME280_pressure;Samples;Min_cycle;Max_cycle;Signal;HPM_P1;HPM_P2
2022/09/09 00:01:25;;;;;;;;;;;;;;;12.56;100.00;100615.00;5074450;28;19919;-64
2022/09/09 00:03:56;;;;;;;;;;;;;;;12.53;100.00;100617.69;5070383;28;20011;-63
2022/09/09 00:06:23;;;;;;;;;;;;;;;12.50;100.00;100620.34;5070554;28;19912;-64
2022/09/09 00:08:54;;;;;;;;;;;;;;;12.47;100.00;100619.50;5069802;28;20384;-63
2022/09/09 00:11:24;;;;;;;;;;;;;;;12.47;100.00;100612.44;5070090;28;19947;-63
2022/09/09 00:13:51;;;;;;;;;;;;;;;12.40;100.00;100616.00;5070139;28;20003;-63
2022/09/09 00:16:19;;;;;;;;;;;;;;;12.41;100.00;100615.13;5073871;28;19970;-64
2022/09/09 00:18:47;;;;;;;;;;;;;;;12.43;100.00;100610.69;5073709;28;19926;-63
2022/09/09 00:21:17;;;;;;;;;;;;;;;12.39;100.00;100608.94;5074256;28;19959;-63
2022/09/09 00:23:52;;;;;;;;;;;;;;;12.38;100.00;100615.16;5073528;28;19912;-65
2022/09/09 00:26:23;;;;;;;;;;;;;;;12.39;100.00;100616.88;5073535;28;19998;-64
2022/09/09 00:28:53;;;;;;;;;;;;;;;12.37;100.00;100605.44;5069581;28;20375;-62
2022/09/09 00:31:23;;;;;;;;;;;;;;;12.32;100.00;100607.22;5069553;28;19956;-63
2022/09/09 00:33:49;;;;;;;;;;;;;;;12.33;100.00;100606.34;5073367;28;19912;-64
2022/09/09 00:36:16;;;;;;;;;;;;;;;12.32;100.00;100604.56;5072774;28;19921;-64
2022/09/09 00:38:49;;;;;;;;;;;;;;;12.31;100.00;100603.69;5073668;28;20363;-64
2022/09/09 00:41:20;;;;;;;;;;;;;;;12.29;100.00;100596.63;5073390;28;20332;-62
2022/09/09 00:43:52;;;;;;;;;;;;;;;12.30;100.00;100599.28;5073424;28;20271;-64
2022/09/09 00:46:23;;;;;;;;;;;;;;;12.32;100.00;100583.38;5073531;28;19912;-64
2022/09/09 00:48:52;;;;;;;;;;;;;;;12.30;100.00;100585.16;5073441;28;19913;-63
2022/09/09 00:51:33;;;;;;;;;;;;;;;12.26;100.00;100584.31;5071812;28;19912;-64
2022/09/09 00:54:01;;;;;;;;;;;;;;;12.22;100.00;100587.88;5070486;28;19912;-64
2022/09/09 00:56:30;;;;;;;;;;;;;;;12.21;100.00;100579.03;5073203;28;20389;-64
2022/09/09 00:59:07;;;;;;;;;;;;;;;12.23;100.00;100579.00;5073601;28;19920;-63
2022/09/09 01:01:32;;;;;;;;;;;;;;;12.21;100.00;100580.81;5073237;28;19912;-64
2022/09/09 01:03:59;;;;;;;;;;;;;;;12.17;100.00;100584.34;5073176;28;19912;-64
2022/09/09 01:06:31;;;;;;;;;;;;;;;12.17;100.00;100590.56;5073237;28;19916;-63
2022/09/09 01:09:06;;;;;;;;;;;;;;;12.13;100.00;100583.50;5073325;28;19916;-63
2022/09/09 01:11:36;;;;;;;;;;;;;;;12.13;100.00;100583.50;5073197;28;19935;-64
2022/09/09 01:14:18;;;;;;;;;;;;;;;12.14;100.00;100574.66;5072758;28;19916;-64
2022/09/09 01:16:44;;;;;;;;;;;;;;;12.14;100.00;100581.72;5073153;28;20015;-64
2022/09/09 01:19:15;;;;;;;;;;;;;;;12.12;100.00;100576.44;5073134;28;19919;-64
2022/09/09 01:21:46;;;;;;;;;;;;;;;12.13;100.00;100582.59;5073264;28;20314;-64
2022/09/09 01:24:31;;;;;;;;;;;;;;;12.14;100.00;100573.78;5072687;28;19912;-64
2022/09/09 01:26:58;;;;;;;;;;;;;;;12.13;100.00;100570.25;5069442;28;20011;-63
2022/09/09 01:29:23;;;;;;;;;;;;;;;12.14;100.00;100566.69;5072763;28;20378;-63
2022/09/09 01:31:55;;;;;;;;;;;;;;;12.12;100.00;100565.84;5072777;28;19916;-63
2022/09/09 01:34:22;;;;;;;;;;;;;;;12.14;100.00;100568.47;5068979;28;19912;-64
2022/09/09 01:36:57;;;;;;;;;;;;;;;12.12;100.00;100573.78;5072598;28;19956;-63
2022/09/09 01:39:23;;;;;;;;;;;;;;;12.11;100.00;100569.38;5069257;28;19936;-63
2022/09/09 01:41:48;;;;;;;;;;;;;;;12.14;100.00;100561.41;5072888;28;20367;-64
2022/09/09 01:44:14;;;;;;;;;;;;;;;12.13;100.00;100561.41;5072516;28;19920;-64
2022/09/09 01:46:39;;;;;;;;;;;;;;;12.13;100.00;100564.97;5075106;28;20278;-62
2022/09/09 01:49:06;;;;;;;;;;;;;;;12.13;100.00;100561.41;5076748;28;20007;-64
2022/09/09 01:51:32;;;;;;;;;;;;;;;12.14;100.00;100560.53;5076965;28;19999;-66
2022/09/09 01:53:57;;;;;;;;;;;;;;;12.10;100.00;100558.78;5076715;28;19951;-63
2022/09/09 01:56:32;;;;;;;;;;;;;;;12.10;100.00;100557.03;5076326;28;20355;-63
2022/09/09 01:59:00;;;;;;;;;;;;;;;12.10;100.00;100549.09;5073596;28;19919;-62
2022/09/09 02:01:38;;;;;;;;;;;;;;;12.08;100.00;100553.50;5076222;28;20260;-64
2022/09/09 02:04:08;;;;;;;;;;;;;;;12.07;100.00;100551.72;5076556;28;19967;-64
2022/09/09 02:06:34;;;;;;;;;;;;;;;12.05;100.00;100542.91;5076435;28;19912;-64
2022/09/09 02:09:02;;;;;;;;;;;;;;;12.04;100.00;100549.09;5076216;28;19916;-66
2022/09/09 02:11:28;;;;;;;;;;;;;;;12.02;100.00;100542.94;5076156;28;19912;-67
2022/09/09 02:13:59;;;;;;;;;;;;;;;12.03;100.00;100539.41;5076449;28;20001;-62
2022/09/09 02:16:31;;;;;;;;;;;;;;;12.02;100.00;100540.31;5072890;28;19912;-62
2022/09/09 02:19:02;;;;;;;;;;;;;;;11.97;100.00;100545.63;5076029;28;19912;-62
2022/09/09 02:21:28;;;;;;;;;;;;;;;11.96;100.00;100548.28;5076040;28;20424;-62
2022/09/09 02:23:56;;;;;;;;;;;;;;;11.95;100.00;100543.88;5076162;28;20042;-61
2022/09/09 02:26:23;;;;;;;;;;;;;;;11.96;100.00;100545.63;5071952;28;20438;-62
2022/09/09 02:28:49;;;;;;;;;;;;;;;11.95;100.00;100541.22;5076309;28;20271;-63
2022/09/09 02:31:17;;;;;;;;;;;;;;;11.96;100.00;100537.69;5075652;28;19924;-65
2022/09/09 02:33:44;;;;;;;;;;;;;;;11.97;100.00;100534.13;5075782;28;20018;-64
2022/09/09 02:36:11;;;;;;;;;;;;;;;11.96;100.00;100538.56;5076156;28;20019;-67
2022/09/09 02:38:40;;;;;;;;;;;;;;;11.96;100.00;100532.41;5075885;28;20007;-66
2022/09/09 02:41:06;;;;;;;;;;;;;;;11.98;100.00;100530.59;5075937;28;20041;-62
2022/09/09 02:43:34;;;;;;;;;;;;;;;11.98;100.00;100535.91;5075784;28;19913;-65
2022/09/09 02:46:18;;;;;;;;;;;;;;;11.95;100.00;100530.63;5076065;28;19912;-64
2022/09/09 02:49:05;;;;;;;;;;;;;;;11.94;100.00;100531.50;5075524;28;19912;-64
2022/09/09 02:51:39;;;;;;;;;;;;;;;11.90;100.00;100533.28;5073284;28;19919;-62
2022/09/09 02:54:17;;;;;;;;;;;;;;;11.96;100.00;100537.69;5075746;28;19908;-63
2022/09/09 02:56:45;;;;;;;;;;;;;;;11.96;100.00;100537.69;5075674;28;20290;-63
2022/09/09 02:59:11;;;;;;;;;;;;;;;11.96;100.00;100535.91;5074526;28;19918;-64
2022/09/09 03:01:36;;;;;;;;;;;;;;;11.96;100.00;100543.00;5075443;28;20002;-63
2022/09/09 03:04:04;;;;;;;;;;;;;;;11.95;100.00;100542.09;5075434;28;19912;-64
2022/09/09 03:06:30;;;;;;;;;;;;;;;11.95;100.00;100546.53;5075273;28;19912;-64
2022/09/09 03:08:57;;;;;;;;;;;;;;;11.92;100.00;100544.72;5075272;28;20003;-64
2022/09/09 03:11:22;;;;;;;;;;;;;;;11.92;100.00;100535.91;5075213;28;19912;-63
2022/09/09 03:13:48;;;;;;;;;;;;;;;11.92;100.00;100544.72;5075175;28;20314;-62
2022/09/09 03:16:14;;;;;;;;;;;;;;;11.93;100.00;100542.97;5075141;28;19908;-63
2022/09/09 03:18:40;;;;;;;;;;;;;;;11.93;100.00;100546.53;5074962;28;20424;-64
2022/09/09 03:21:06;;;;;;;;;;;;;;;11.96;100.00;100550.94;5074909;28;19912;-62
2022/09/09 03:23:32;;;;;;;;;;;;;;;11.96;100.00;100554.47;5074991;28;20014;-64
2022/09/09 03:25:58;;;;;;;;;;;;;;;11.98;100.00;100555.31;5074740;28;19952;-63
2022/09/09 03:28:24;;;;;;;;;;;;;;;12.00;100.00;100558.84;5074919;28;19920;-64
2022/09/09 03:30:50;;;;;;;;;;;;;;;12.03;100.00;100555.31;5074575;28;20291;-64
2022/09/09 03:33:16;;;;;;;;;;;;;;;12.07;100.00;100550.84;5074851;28;19916;-64
2022/09/09 03:35:46;;;;;;;;;;;;;;;12.08;100.00;100556.16;5075166;28;19915;-63
2022/09/09 03:38:11;;;;;;;;;;;;;;;12.06;100.00;100552.63;5074866;28;19912;-63
2022/09/09 03:40:36;;;;;;;;;;;;;;;12.03;100.00;100544.72;5074579;28;19915;-63
2022/09/09 03:43:01;;;;;;;;;;;;;;;12.02;100.00;100537.66;5074849;28;20046;-64
2022/09/09 03:45:27;;;;;;;;;;;;;;;12.03;100.00;100550.00;5074310;28;20359;-65
2022/09/09 03:47:52;;;;;;;;;;;;;;;12.01;100.00;100546.47;5074439;28;19935;-67
2022/09/09 03:50:18;;;;;;;;;;;;;;;12.02;100.00;100542.94;5074728;28;19943;-64
2022/09/09 03:52:43;;;;;;;;;;;;;;;12.03;100.00;100544.72;5074657;28;20287;-64
2022/09/09 03:55:09;;;;;;;;;;;;;;;12.02;100.00;100549.13;5074191;28;20354;-63
2022/09/09 03:57:35;;;;;;;;;;;;;;;12.03;100.00;100540.28;5074407;28;19970;-64
2022/09/09 04:00:05;;;;;;;;;;;;;;;12.05;100.00;100542.91;5073986;28;20363;-64
2022/09/09 04:02:30;;;;;;;;;;;;;;;12.04;100.00;100543.81;5073990;28;19912;-63
2022/09/09 04:04:56;;;;;;;;;;;;;;;12.05;100.00;100537.63;5074172;28;19934;-63
2022/09/09 04:07:21;;;;;;;;;;;;;;;12.07;100.00;100533.19;5069871;28;19912;-63
2022/09/09 04:09:46;;;;;;;;;;;;;;;12.06;100.00;100534.09;5072937;28;20279;-63
2022/09/09 04:12:13;;;;;;;;;;;;;;;12.06;100.00;100530.53;5074099;28;20003;-64
2022/09/09 04:14:38;;;;;;;;;;;;;;;12.08;100.00;100531.44;5073965;28;19912;-63
2022/09/09 04:17:06;;;;;;;;;;;;;;;12.09;100.00;100528.78;5073598;28;19923;-64
2022/09/09 04:19:31;;;;;;;;;;;;;;;12.12;100.00;100534.03;5074109;28;19912;-65
2022/09/09 04:21:56;;;;;;;;;;;;;;;12.13;100.00;100532.25;5073699;28;19912;-63
2022/09/09 04:24:21;;;;;;;;;;;;;;;12.18;100.00;100534.00;5073659;28;19912;-63
2022/09/09 04:26:47;;;;;;;;;;;;;;;12.23;100.00;100527.78;5073733;28;19974;-64
2022/09/09 04:29:12;;;;;;;;;;;;;;;12.24;100.00;100518.97;5073521;28;19919;-64
2022/09/09 04:31:41;;;;;;;;;;;;;;;12.25;100.00;100528.69;5073431;28;19922;-64
2022/09/09 04:34:07;;;;;;;;;;;;;;;12.23;100.00;100520.72;5073883;28;19918;-64
2022/09/09 04:36:33;;;;;;;;;;;;;;;12.24;100.00;100524.25;5073619;28;19995;-63
2022/09/09 04:38:58;;;;;;;;;;;;;;;12.22;100.00;100524.28;5073525;28;19974;-65
2022/09/09 04:41:23;;;;;;;;;;;;;;;12.24;100.00;100521.59;5073430;28;19931;-64
2022/09/09 04:43:49;;;;;;;;;;;;;;;12.24;100.00;100521.59;5073143;28;19912;-64
2022/09/09 04:46:16;;;;;;;;;;;;;;;12.27;100.00;100522.44;5072042;28;19916;-64
2022/09/09 04:48:41;;;;;;;;;;;;;;;12.24;100.00;100524.25;5073416;28;20003;-63
2022/09/09 04:51:09;;;;;;;;;;;;;;;12.25;100.00;100518.94;5073128;28;20382;-64
2022/09/09 04:53:34;;;;;;;;;;;;;;;12.23;100.00;100509.22;5073476;28;19917;-63
2022/09/09 04:56:02;;;;;;;;;;;;;;;12.28;100.00;100512.75;5073224;28;19915;-64
2022/09/09 04:58:28;;;;;;;;;;;;;;;12.30;100.00;100511.81;5073209;28;19913;-64
2022/09/09 05:00:53;;;;;;;;;;;;;;;12.35;100.00;100507.38;5073263;28;19916;-65
2022/09/09 05:03:19;;;;;;;;;;;;;;;12.38;100.00;100511.78;5072810;28;19923;-65
2022/09/09 05:05:44;;;;;;;;;;;;;;;12.42;100.00;100509.97;5073346;28;19917;-63
2022/09/09 05:08:09;;;;;;;;;;;;;;;12.43;100.00;100515.25;5073344;28;20355;-63
2022/09/09 05:10:37;;;;;;;;;;;;;;;12.41;100.00;100510.84;5073060;28;19935;-64
2022/09/09 05:13:02;;;;;;;;;;;;;;;12.40;100.00;100517.94;5072909;28;19913;-64
2022/09/09 05:15:27;;;;;;;;;;;;;;;12.43;100.00;100514.38;5072960;28;19916;-64
2022/09/09 05:17:56;;;;;;;;;;;;;;;12.44;100.00;100519.66;5073121;28;19938;-64
2022/09/09 05:20:21;;;;;;;;;;;;;;;12.44;100.00;100514.38;5072680;28;20310;-64
2022/09/09 05:22:47;;;;;;;;;;;;;;;12.51;100.00;100512.56;5073067;28;19916;-65
2022/09/09 05:25:12;;;;;;;;;;;;;;;12.49;100.00;100507.25;5072746;28;19958;-64
2022/09/09 05:27:37;;;;;;;;;;;;;;;12.49;100.00;100507.25;5072787;28;19959;-62
2022/09/09 05:30:02;;;;;;;;;;;;;;;12.44;100.00;100503.75;5072639;28;19996;-63
2022/09/09 05:32:32;;;;;;;;;;;;;;;12.50;100.00;100502.84;5072991;28;19912;-63
2022/09/09 05:34:57;;;;;;;;;;;;;;;12.51;100.00;100501.94;5072947;28;19913;-62
2022/09/09 05:37:23;;;;;;;;;;;;;;;12.54;100.00;100502.78;5072784;28;19912;-64
2022/09/09 05:39:48;;;;;;;;;;;;;;;12.57;100.00;100504.53;5072773;28;19958;-64
2022/09/09 05:42:14;;;;;;;;;;;;;;;12.60;100.00;100511.59;5072882;28;19955;-64
2022/09/09 05:44:39;;;;;;;;;;;;;;;12.66;100.00;100511.53;5070721;28;19918;-64
2022/09/09 05:47:04;;;;;;;;;;;;;;;12.72;100.00;100504.38;5067879;28;19920;-64
2022/09/09 05:49:29;;;;;;;;;;;;;;;12.88;100.00;100514.84;5071079;28;19916;-64
2022/09/09 05:51:55;;;;;;;;;;;;;;;12.80;100.00;100521.97;5071715;28;19909;-64
2022/09/09 05:54:20;;;;;;;;;;;;;;;12.80;100.00;100522.88;5071667;28;20318;-65
2022/09/09 05:56:45;;;;;;;;;;;;;;;12.84;100.00;100519.31;5071986;28;19951;-65
2022/09/09 05:59:11;;;;;;;;;;;;;;;12.96;100.00;100526.25;5071839;28;19955;-64
2022/09/09 06:01:40;;;;;;;;;;;;;;;13.06;100.00;100524.38;5071770;28;19919;-64
2022/09/09 06:04:05;;;;;;;;;;;;;;;12.98;100.00;100534.19;5068551;28;20359;-64
2022/09/09 06:06:36;;;;;;;;;;;;;;;13.06;100.00;100519.06;5071942;28;19965;-64
2022/09/09 06:09:02;;;;;;;;;;;;;;;13.01;100.00;100521.75;5071508;28;19943;-64
2022/09/09 06:11:30;;;;;;;;;;;;;;;13.08;100.00;100518.16;5071316;28;20374;-64
2022/09/09 06:13:56;;;;;;;;;;;;;;;13.08;100.00;100527.91;5071290;28;19967;-64
2022/09/09 06:16:26;;;;;;;;;;;;;;;13.18;100.00;100528.69;5071638;28;19909;-70
2022/09/09 06:18:52;;;;;;;;;;;;;;;13.30;100.00;100525.00;5071432;28;20416;-66
2022/09/09 06:21:19;;;;;;;;;;;;;;;13.36;100.00;100522.31;5071461;28;19970;-68
2022/09/09 06:23:45;;;;;;;;;;;;;;;13.49;100.00;100523.91;5071149;28;19960;-68
2022/09/09 06:26:11;;;;;;;;;;;;;;;13.49;100.00;100526.56;5071828;28;20377;-68
2022/09/09 06:28:37;;;;;;;;;;;;;;;13.43;100.00;100523.97;5071353;28;19995;-68
2022/09/09 06:31:06;;;;;;;;;;;;;;;13.62;100.00;100535.25;5071212;28;20015;-68
2022/09/09 06:33:34;;;;;;;;;;;;;;;13.50;100.00;100530.06;5072443;28;19935;-68
2022/09/09 06:36:00;;;;;;;;;;;;;;;13.65;100.00;100534.34;5075391;28;19917;-68
2022/09/09 06:38:25;;;;;;;;;;;;;;;13.52;100.00;100533.59;5074862;28;20386;-65
2022/09/09 06:40:58;;;;;;;;;;;;;;;13.57;100.00;100522.03;5073493;28;20043;-66
2022/09/09 06:43:24;;;;;;;;;;;;;;;13.64;100.00;100516.63;5073330;28;19912;-66
2022/09/09 06:45:53;;;;;;;;;;;;;;;13.64;100.00;100527.25;5074089;28;20465;-66
2022/09/09 06:48:18;;;;;;;;;;;;;;;13.57;100.00;100522.03;5074402;28;19912;-66
2022/09/09 06:50:43;;;;;;;;;;;;;;;13.53;100.00;100520.31;5074850;28;19962;-67
2022/09/09 06:53:08;;;;;;;;;;;;;;;13.57;100.00;100530.00;5074733;28;20283;-67
2022/09/09 06:55:34;;;;;;;;;;;;;;;13.69;100.00;100525.41;5074588;28;19916;-64
2022/09/09 06:58:00;;;;;;;;;;;;;;;13.85;100.00;100515.44;5074599;28;19958;-63
2022/09/09 07:00:25;;;;;;;;;;;;;;;13.92;100.00;100520.66;5074613;28;19920;-64
2022/09/09 07:02:51;;;;;;;;;;;;;;;13.98;100.00;100522.34;5074357;28;20028;-63
2022/09/09 07:05:16;;;;;;;;;;;;;;;14.15;100.00;100527.41;5073983;28;19913;-63
2022/09/09 07:07:41;;;;;;;;;;;;;;;14.29;100.00;100528.06;5071140;28;20000;-62
2022/09/09 07:10:07;;;;;;;;;;;;;;;14.45;100.00;100526.03;5075213;28;19912;-62
2022/09/09 07:12:32;;;;;;;;;;;;;;;14.40;100.00;100519.03;5075062;28;20003;-62
2022/09/09 07:14:57;;;;;;;;;;;;;;;14.55;100.00;100529.41;5074360;28;19916;-62
2022/09/09 07:17:23;;;;;;;;;;;;;;;14.82;100.00;100522.78;5075008;28;19913;-63
2022/09/09 07:19:48;;;;;;;;;;;;;;;14.95;100.00;100522.53;5073330;28;19922;-67
2022/09/09 07:22:14;;;;;;;;;;;;;;;14.95;100.00;100528.72;5072898;28;20000;-68
2022/09/09 07:24:39;;;;;;;;;;;;;;;15.02;100.00;100529.50;5074310;28;19912;-69
2022/09/09 07:27:05;;;;;;;;;;;;;;;15.13;100.00;100515.97;5074201;28;19986;-68
2022/09/09 07:29:30;;;;;;;;;;;;;;;15.23;100.00;100517.56;5073042;28;20405;-66
2022/09/09 07:31:56;;;;;;;;;;;;;;;15.26;100.00;100513.94;5073764;28;19939;-67
2022/09/09 07:34:21;;;;;;;;;;;;;;;15.19;100.00;100514.97;5073923;28;19912;-69
2022/09/09 07:36:47;;;;;;;;;;;;;;;15.17;100.00;100528.31;5073751;28;19912;-69
2022/09/09 07:39:13;;;;;;;;;;;;;;;15.12;100.00;100524.88;5073508;28;19912;-68
2022/09/09 07:41:40;;;;;;;;;;;;;;;15.30;100.00;100531.63;5073674;28;19916;-68
2022/09/09 07:44:06;;;;;;;;;;;;;;;15.20;100.00;100530.91;5073614;28;19927;-69
2022/09/09 07:46:32;;;;;;;;;;;;;;;15.09;100.00;100532.94;5073956;28;19943;-68
2022/09/09 07:48:57;;;;;;;;;;;;;;;15.08;100.00;100529.38;5073477;28;19952;-69
2022/09/09 07:51:27;;;;;;;;;;;;;;;15.14;100.00;100523.06;5073498;28;20523;-70
2022/09/09 07:53:53;;;;;;;;;;;;;;;15.24;100.00;100521.97;5073371;28;19919;-69
2022/09/09 07:56:23;;;;;;;;;;;;;;;15.40;100.00;100506.56;5073449;28;19958;-64
2022/09/09 07:58:48;;;;;;;;;;;;;;;15.48;100.00;100517.06;5073389;28;19913;-64
2022/09/09 08:01:21;;;;;;;;;;;;;;;15.57;100.00;100519.53;5068924;28;19916;-64
2022/09/09 08:03:52;;;;;;;;;;;;;;;15.71;100.00;100521.00;5070179;28;19947;-67
2022/09/09 08:06:17;;;;;;;;;;;;;;;15.82;100.00;100521.69;5071194;28;19916;-63
2022/09/09 08:08:43;;;;;;;;;;;;;;;15.90;100.00;100519.72;5074184;28;19912;-64
2022/09/09 08:11:10;;;;;;;;;;;;;;;15.98;100.00;100516.88;5073867;28;19913;-64
2022/09/09 08:13:36;;;;;;;;;;;;;;;16.15;100.00;100522.69;5073667;28;19913;-65
2022/09/09 08:16:21;;;;;;;;;;;;;;;16.25;100.00;100518.03;5073920;28;19955;-64
2022/09/09 08:18:47;;;;;;;;;;;;;;;16.55;100.00;100518.16;5071239;28;19917;-64
2022/09/09 08:21:13;;;;;;;;;;;;;;;16.64;100.00;100522.38;5074072;28;19957;-64
2022/09/09 08:23:42;;;;;;;;;;;;;;;16.71;100.00;100527.50;5069570;28;19927;-64
2022/09/09 08:26:15;;;;;;;;;;;;;;;16.84;100.00;100532.53;5074154;28;20270;-63
2022/09/09 08:28:41;;;;;;;;;;;;;;;16.92;100.00;100525.25;5069752;28;19916;-64
2022/09/09 08:31:07;;;;;;;;;;;;;;;16.84;100.00;100524.53;5073417;28;20010;-64
2022/09/09 08:33:33;;;;;;;;;;;;;;;16.90;100.00;100530.59;5074026;28;19913;-64
2022/09/09 08:35:58;;;;;;;;;;;;;;;16.94;100.00;100531.41;5073720;28;19954;-64
2022/09/09 08:38:24;;;;;;;;;;;;;;;16.97;100.00;100544.66;5073259;28;19938;-65
2022/09/09 08:40:53;;;;;;;;;;;;;;;16.82;100.00;100534.34;5073412;28;19916;-67
2022/09/09 08:43:21;;;;;;;;;;;;;;;16.66;100.00;100531.22;5073217;28;20007;-63
2022/09/09 08:45:46;;;;;;;;;;;;;;;16.57;100.00;100537.66;5072916;28;19912;-64
2022/09/09 08:48:22;;;;;;;;;;;;;;;16.47;100.00;100536.13;5073644;28;19912;-65
2022/09/09 08:50:49;;;;;;;;;;;;;;;16.45;100.00;100532.66;5070431;28;19957;-68
2022/09/09 08:53:14;;;;;;;;;;;;;;;16.49;100.00;100539.66;5072994;28;19915;-64
2022/09/09 08:55:42;;;;;;;;;;;;;;;16.50;100.00;100544.97;5069447;28;19979;-64
2022/09/09 08:58:13;;;;;;;;;;;;;;;16.65;100.00;100538.34;5072270;28;19912;-64
2022/09/09 09:01:02;;;;;;;;;;;;;;;16.92;100.00;100549.28;5072083;28;19916;-64
2022/09/09 09:03:46;;;;;;;;;;;;;;;16.90;100.00;100556.44;4988421;28;19954;-63
2022/09/09 09:06:29;;;;;;;;;;;;;;;16.78;100.00;100552.25;4990502;28;19957;-65
2022/09/09 09:09:01;;;;;;;;;;;;;;;16.87;100.00;100556.47;4990170;28;19918;-65
2022/09/09 09:11:26;;;;;;;;;;;;;;;16.82;100.00;100561.03;4990178;28;19920;-64
2022/09/09 09:14:09;;;;;;;;;;;;;;;16.93;100.00;100560.81;4988660;28;19917;-65
2022/09/09 09:16:48;;;;;;;;;;;;;;;16.96;100.00;100561.59;4989196;28;19968;-63
2022/09/09 09:19:15;;;;;;;;;;;;;;;17.02;100.00;100558.78;4990333;28;19953;-65
2022/09/09 09:21:40;;;;;;;;;;;;;;;17.08;100.00;100558.63;4990021;28;20468;-63
2022/09/09 09:24:14;;;;;;;;;;;;;;;17.07;100.00;100564.88;4990375;28;19914;-62
2022/09/09 09:26:42;;;;;;;;;;;;;;;16.74;100.00;100582.59;4990589;28;19921;-63
2022/09/09 09:29:11;;;;;;;;;;;;;;;16.48;100.00;100575.25;4990239;28;19965;-62
2022/09/09 09:31:37;;;;;;;;;;;;;;;16.54;100.00;100564.41;4990395;28;19920;-62
2022/09/09 09:34:02;;;;;;;;;;;;;;;16.78;100.00;100575.41;4990491;28;19968;-63
2022/09/09 09:36:42;;;;;;;;;;;;;;;16.82;100.00;100574.41;4990345;28;19914;-64
2022/09/09 09:39:09;;;;;;;;;;;;;;;17.11;100.00;100567.44;4989639;28;19914;-67
2022/09/09 09:41:34;;;;;;;;;;;;;;;17.25;100.00;100565.28;5067682;28;19923;-63
2022/09/09 09:44:01;;;;;;;;;;;;;;;17.21;100.00;100566.28;5072472;28;19916;-69
2022/09/09 09:46:26;;;;;;;;;;;;;;;16.61;100.00;100566.03;5072544;28;19912;-64
2022/09/09 09:49:08;;;;;;;;;;;;;;;16.00;100.00;100552.38;5072220;28;19919;-63
2022/09/09 09:51:34;;;;;;;;;;;;;;;15.30;100.00;100553.81;5077159;28;19912;-62
2022/09/09 09:54:18;;;;;;;;;;;;;;;15.13;100.00;100563.88;5072486;28;20015;-62
2022/09/09 09:56:44;;;;;;;;;;;;;;;15.04;100.00;100558.75;5072381;28;20012;-65
2022/09/09 09:59:20;;;;;;;;;;;;;;;14.96;100.00;100556.22;5072592;28;19913;-63
2022/09/09 10:01:45;;;;;;;;;;;;;;;14.81;100.00;100570.69;5072389;28;19913;-64
2022/09/09 10:04:21;;;;;;;;;;;;;;;14.69;100.00;100558.47;5072716;28;19912;-65
2022/09/09 10:06:47;;;;;;;;;;;;;;;14.70;100.00;100564.69;5072563;28;19912;-65
2022/09/09 10:09:21;;;;;;;;;;;;;;;14.76;100.00;100572.56;5075471;28;20412;-64
2022/09/09 10:12:06;;;;;;;;;;;;;;;14.89;100.00;100566.09;5075889;28;19912;-63
2022/09/09 10:14:35;;;;;;;;;;;;;;;14.92;100.00;100570.50;5073048;28;19908;-65
2022/09/09 10:17:03;;;;;;;;;;;;;;;14.69;100.00;100568.25;5076454;28;20015;-66
2022/09/09 10:19:33;;;;;;;;;;;;;;;14.80;100.00;100572.47;5075793;28;19912;-65
2022/09/09 10:22:10;;;;;;;;;;;;;;;14.84;100.00;100572.41;5076130;28;19916;-64
2022/09/09 10:24:49;;;;;;;;;;;;;;;14.93;100.00;100573.13;5072527;28;20306;-75
2022/09/09 10:27:33;;;;;;;;;;;;;;;15.10;100.00;100574.59;5073910;28;19916;-74
2022/09/09 10:30:10;;;;;;;;;;;;;;;14.63;100.00;100583.41;5075259;28;19916;-73
2022/09/09 10:32:38;;;;;;;;;;;;;;;14.63;100.00;100580.75;5072252;28;19916;-76
2022/09/09 10:35:18;;;;;;;;;;;;;;;14.64;100.00;100579.81;5073824;28;20355;-64
2022/09/09 10:38:02;;;;;;;;;;;;;;;14.72;100.00;100584.13;5074912;28;19916;-73
2022/09/09 10:40:32;;;;;;;;;;;;;;;14.72;100.00;100579.72;5073993;28;19963;-66
2022/09/09 10:43:23;;;;;;;;;;;;;;;14.96;100.00;100578.41;5074239;28;19995;-63
2022/09/09 10:46:10;;;;;;;;;;;;;;;14.90;100.00;100581.19;4999558;28;20012;-63
2022/09/09 10:48:47;;;;;;;;;;;;;;;14.69;100.00;100576.22;4991989;28;20329;-63
2022/09/09 10:51:32;;;;;;;;;;;;;;;14.74;100.00;100572.56;4997094;28;20289;-64
2022/09/09 10:53:58;;;;;;;;;;;;;;;14.86;100.00;100576.81;4993708;28;21729;-65
2022/09/09 10:56:23;;;;;;;;;;;;;;;15.01;100.00;100580.97;4993926;28;20024;-66
2022/09/09 10:59:12;;;;;;;;;;;;;;;15.12;100.00;100578.13;4993123;28;19914;-67
2022/09/09 11:01:44;;;;;;;;;;;;;;;15.18;100.00;100574.47;4992606;28;19936;-65
2022/09/09 11:04:17;;;;;;;;;;;;;;;14.98;100.00;100581.03;4991915;28;20258;-66
2022/09/09 11:06:46;;;;;;;;;;;;;;;15.03;100.00;100588.91;4993852;28;20032;-65
2022/09/09 11:09:15;;;;;;;;;;;;;;;14.85;100.00;100583.03;4997761;28;19909;-65
2022/09/09 11:11:49;;;;;;;;;;;;;;;14.89;100.00;100573.22;4992543;28;19922;-64
2022/09/09 11:14:17;;;;;;;;;;;;;;;15.05;100.00;100569.38;4996893;28;20420;-64
2022/09/09 11:16:50;;;;;;;;;;;;;;;15.10;100.00;100574.59;4993089;28;19937;-64
2022/09/09 11:19:21;;;;;;;;;;;;;;;15.13;100.00;100579.84;4994864;28;20130;-64
2022/09/09 11:21:47;;;;;;;;;;;;;;;15.29;100.00;100580.44;5007316;28;20367;-64
2022/09/09 11:24:17;;;;;;;;;;;;;;;15.11;100.00;100576.34;5074201;28;20275;-72
2022/09/09 11:26:47;;;;;;;;;;;;;;;15.08;100.00;100576.41;5073261;28;19986;-67
2022/09/09 11:29:15;;;;;;;;;;;;;;;14.93;100.00;100570.47;5073969;28;19926;-68
2022/09/09 11:31:41;;;;;;;;;;;;;;;14.95;100.00;100576.63;5072299;28;20302;-71
2022/09/09 11:34:08;;;;;;;;;;;;;;;15.01;100.00;100574.78;5073889;28;19922;-70
2022/09/09 11:36:49;;;;;;;;;;;;;;;14.94;100.00;100566.91;5074023;28;19908;-71
2022/09/09 11:39:17;;;;;;;;;;;;;;;15.03;100.00;100570.28;5073706;28;19916;-71
2022/09/09 11:41:42;;;;;;;;;;;;;;;14.92;100.00;100579.34;5073604;28;19919;-71
2022/09/09 11:44:20;;;;;;;;;;;;;;;14.89;100.00;100571.41;5073075;28;19912;-71
2022/09/09 11:46:48;;;;;;;;;;;;;;;14.87;100.00;100573.25;5073856;28;19912;-62
2022/09/09 11:49:28;;;;;;;;;;;;;;;14.94;100.00;100569.56;5072652;28;20319;-64
2022/09/09 11:51:54;;;;;;;;;;;;;;;14.93;100.00;100570.47;5071703;28;20268;-65
2022/09/09 11:54:33;;;;;;;;;;;;;;;15.13;100.00;100569.22;5073004;28;20386;-62
2022/09/09 11:56:59;;;;;;;;;;;;;;;15.34;100.00;100562.59;5071508;28;19912;-62
2022/09/09 11:59:31;;;;;;;;;;;;;;;15.37;100.00;100572.34;5071277;28;19923;-62
2022/09/09 12:02:20;;;;;;;;;;;;;;;15.33;100.00;100579.47;5074082;28;20104;-63
2022/09/09 12:04:54;;;;;;;;;;;;;;;15.37;100.00;100567.88;5071035;28;19920;-64
2022/09/09 12:07:22;;;;;;;;;;;;;;;15.52;100.00;100566.69;5073817;28;19913;-65
2022/09/09 12:09:51;;;;;;;;;;;;;;;15.80;100.00;100563.47;5074201;28;20007;-64
2022/09/09 12:12:30;;;;;;;;;;;;;;;15.88;100.00;100566.84;5073749;28;19918;-63
2022/09/09 12:14:55;;;;;;;;;;;;;;;16.19;100.00;100568.81;5074013;28;20427;-63
2022/09/09 12:17:22;;;;;;;;;;;;;;;16.26;100.00;100558.88;5073878;28;20014;-62
2022/09/09 12:19:48;;;;;;;;;;;;;;;16.29;100.00;100562.34;5073822;28;19966;-65
2022/09/09 12:22:14;;;;;;;;;;;;;;;16.04;100.00;100560.25;5073692;28;19912;-63
2022/09/09 12:24:58;;;;;;;;;;;;;;;16.12;100.00;100564.53;5069973;28;19912;-62
2022/09/09 12:27:27;;;;;;;;;;;;;;;16.15;100.00;100564.47;5071775;28;19916;-63
2022/09/09 12:30:12;;;;;;;;;;;;;;;16.07;100.00;100561.97;5072016;28;19923;-63
2022/09/09 12:32:37;;;;;;;;;;;;;;;16.42;100.00;100554.06;5073684;28;19951;-63
2022/09/09 12:35:10;;;;;;;;;;;;;;;16.74;100.00;100564.78;5073643;28;19959;-63
2022/09/09 12:37:46;;;;;;;;;;;;;;;16.72;100.00;100563.09;5073402;28;19912;-65